Time;durP1;ratioP1;P1;durP2;ratioP2;P2;SDS_P1;SDS_P2;PMS_P1;PMS_P2;Temp;Humidity;BMP_temperature;BMP_pressure;BME280_temperature;BME280_humidity;BME280_pressure;Samples;Min_cycle;Max_cycle;Signal;HPM_P1;HPM_P2
2021/07/14 00:01:40;;;;;;;24.93;22.27;;;21.10;1.00;;;;;;5078705;28;20465;-77
2021/07/14 00:04:07;;;;;;;25.90;23.30;;;21.10;1.00;;;;;;5065341;28;20445;-77
2021/07/14 00:06:33;;;;;;;24.73;22.60;;;21.10;1.00;;;;;;5069609;28;21421;-76
2021/07/14 00:09:00;;;;;;;25.83;23.33;;;21.10;1.00;;;;;;5072436;28;20448;-77
2021/07/14 00:11:29;;;;;;;25.17;22.67;;;21.10;1.00;;;;;;5073686;28;20554;-77
2021/07/14 00:14:04;;;;;;;24.77;22.77;;;21.10;1.00;;;;;;5073007;28;20520;-77
2021/07/14 00:22:10;;;;;;;24.63;22.30;;;21.00;1.00;;;;;;5075040;28;20427;-77
2021/07/14 00:24:37;;;;;;;24.93;22.83;;;21.00;1.00;;;;;;5073359;28;20532;-77
2021/07/14 00:27:06;;;;;;;26.77;24.40;;;21.10;1.00;;;;;;5061293;28;21590;-77
2021/07/14 00:29:35;;;;;;;26.87;24.67;;;21.10;1.00;;;;;;5078629;28;20555;-77
2021/07/14 00:32:04;;;;;;;25.20;23.10;;;21.10;1.00;;;;;;5070791;28;20472;-77
2021/07/14 00:34:31;;;;;;;26.40;24.20;;;21.10;1.00;;;;;;5078132;28;20464;-77
2021/07/14 00:36:57;;;;;;;27.37;25.17;;;21.10;1.00;;;;;;5071814;28;20463;-77
2021/07/14 00:39:24;;;;;;;25.70;23.60;;;21.10;1.00;;;;;;5072996;28;20449;-77
2021/07/14 00:41:51;;;;;;;26.93;24.73;;;21.00;1.00;;;;;;5070871;28;20460;-77
2021/07/14 00:44:17;;;;;;;26.27;24.03;;;21.00;1.00;;;;;;5076129;28;20456;-77
2021/07/14 00:46:47;;;;;;;26.20;23.60;;;21.00;1.00;;;;;;5071737;28;20449;-77
2021/07/14 00:49:17;;;;;;;27.23;24.73;;;20.90;1.00;;;;;;5076125;28;20445;-77
2021/07/14 00:51:44;;;;;;;27.70;24.83;;;21.00;1.00;;;;;;5071897;28;21168;-77
2021/07/14 00:54:11;;;;;;;25.87;23.67;;;20.90;1.00;;;;;;5073306;28;20551;-77
2021/07/14 00:56:39;;;;;;;25.73;23.53;;;20.90;1.00;;;;;;5072390;28;20950;-77
2021/07/14 00:59:05;;;;;;;26.57;24.30;;;20.80;1.00;;;;;;5072328;28;20576;-77
2021/07/14 01:01:32;;;;;;;27.43;25.03;;;20.80;1.00;;;;;;5072437;28;20538;-77
2021/07/14 01:04:05;;;;;;;26.00;23.70;;;20.80;1.00;;;;;;5067692;28;20993;-77
2021/07/14 01:06:45;;;;;;;25.60;23.47;;;20.70;1.00;;;;;;5072548;28;20473;-77
2021/07/14 01:09:14;;;;;;;27.73;25.23;;;20.70;1.00;;;;;;5064145;28;20443;-77
2021/07/14 01:11:43;;;;;;;27.13;24.80;;;20.70;1.00;;;;;;5075934;28;20452;-77
2021/07/14 01:14:21;;;;;;;27.73;25.23;;;20.60;1.00;;;;;;5068200;28;20456;-77
2021/07/14 01:16:52;;;;;;;26.17;23.87;;;20.60;1.00;;;;;;5076518;28;20452;-77
2021/07/14 01:19:39;;;;;;;27.57;24.97;;;20.60;1.00;;;;;;5072050;28;21433;-77
2021/07/14 01:22:26;;;;;;;27.03;24.60;;;20.60;1.00;;;;;;5071532;28;20439;-77
2021/07/14 01:25:00;;;;;;;27.90;25.40;;;20.50;1.00;;;;;;5088384;22;20467;-75
2021/07/14 01:27:34;;;;;;;27.47;24.97;;;20.50;1.00;;;;;;5071658;28;20955;-75
2021/07/14 01:30:05;;;;;;;28.30;25.77;;;20.50;1.00;;;;;;5069680;28;20599;-72
2021/07/14 01:32:33;;;;;;;27.37;24.93;;;20.60;1.00;;;;;;5069427;28;20473;-75
2021/07/14 01:35:04;;;;;;;26.77;24.47;;;20.50;1.00;;;;;;5056443;28;20465;-73
2021/07/14 01:37:32;;;;;;;28.30;25.80;;;20.60;1.00;;;;;;5058526;28;20458;-76
2021/07/14 01:40:01;;;;;;;28.87;26.47;;;20.60;1.00;;;;;;5047966;28;20462;-75
2021/07/14 01:42:31;;;;;;;29.57;27.03;;;20.60;1.00;;;;;;5045784;28;21030;-75
2021/07/14 01:44:59;;;;;;;28.47;25.97;;;20.60;1.00;;;;;;5048408;28;24726;-74
2021/07/14 01:47:27;;;;;;;31.10;28.30;;;20.60;1.00;;;;;;5046594;28;21485;-73
2021/07/14 01:49:57;;;;;;;28.47;25.83;;;20.50;1.00;;;;;;5046925;28;20453;-75
2021/07/14 01:52:26;;;;;;;29.50;26.90;;;20.60;1.00;;;;;;5046599;28;20456;-76
2021/07/14 01:54:56;;;;;;;28.57;26.17;;;20.60;1.00;;;;;;5049724;27;20474;-75
2021/07/14 01:57:24;;;;;;;29.17;26.47;;;20.60;1.00;;;;;;5049236;28;20469;-74
2021/07/14 01:59:53;;;;;;;30.50;27.60;;;20.60;1.00;;;;;;5049138;28;20449;-75
2021/07/14 02:02:24;;;;;;;29.97;27.37;;;20.50;1.00;;;;;;5049804;28;20832;-74
2021/07/14 02:04:53;;;;;;;29.50;26.43;;;20.50;1.00;;;;;;5043331;28;20551;-73
2021/07/14 02:07:26;;;;;;;29.83;26.93;;;20.50;1.00;;;;;;5043443;28;20491;-74
2021/07/14 02:09:54;;;;;;;29.50;26.93;;;20.50;1.00;;;;;;5045968;28;21170;-74
2021/07/14 02:12:23;;;;;;;30.17;27.27;;;20.40;1.00;;;;;;5052914;28;20514;-74
2021/07/14 02:14:55;;;;;;;28.07;25.67;;;20.40;1.00;;;;;;5055844;28;20446;-73
2021/07/14 02:17:24;;;;;;;29.60;26.70;;;20.40;1.00;;;;;;5056988;28;20462;-73
2021/07/14 02:19:58;;;;;;;29.93;27.53;;;20.40;1.00;;;;;;5060295;28;20441;-72
2021/07/14 02:22:24;;;;;;;30.10;27.50;;;20.40;1.00;;;;;;5057816;28;20510;-72
2021/07/14 02:24:51;;;;;;;28.60;25.80;;;20.30;1.00;;;;;;5053814;28;20490;-73
2021/07/14 02:27:17;;;;;;;31.10;28.50;;;20.30;1.00;;;;;;5050192;28;20540;-74
2021/07/14 02:29:44;;;;;;;30.63;27.93;;;20.30;1.00;;;;;;5050564;28;20437;-75
2021/07/14 02:32:17;;;;;;;31.13;28.23;;;20.30;1.00;;;;;;5053003;28;20485;-73
2021/07/14 02:34:45;;;;;;;29.73;26.80;;;20.30;1.00;;;;;;5050640;28;20460;-73
2021/07/14 02:37:16;;;;;;;31.70;28.80;;;20.30;1.00;;;;;;5050585;28;20458;-74
2021/07/14 02:39:46;;;;;;;32.03;29.00;;;20.20;1.00;;;;;;5048318;28;20544;-74
2021/07/14 02:42:25;;;;;;;32.00;29.00;;;20.20;1.00;;;;;;5044638;28;20493;-74
2021/07/14 02:44:53;;;;;;;34.07;30.93;;;20.30;1.00;;;;;;5049709;28;20481;-74
2021/07/14 02:47:22;;;;;;;32.23;29.33;;;20.30;1.00;;;;;;5045547;28;20544;-74
2021/07/14 02:49:49;;;;;;;31.27;28.47;;;20.30;1.00;;;;;;5047297;28;20563;-74
2021/07/14 02:52:17;;;;;;;32.30;29.47;;;20.30;1.00;;;;;;5044709;28;20484;-75
2021/07/14 02:54:48;;;;;;;31.43;28.70;;;20.20;1.00;;;;;;5043544;28;21236;-75
2021/07/14 02:57:18;;;;;;;31.27;28.53;;;20.30;1.00;;;;;;5047174;28;20453;-76
2021/07/14 02:59:51;;;;;;;32.53;29.50;;;20.20;1.00;;;;;;5046957;28;20449;-74
2021/07/14 03:02:21;;;;;;;30.87;28.13;;;20.20;1.00;;;;;;5048861;28;20504;-75
2021/07/14 03:04:52;;;;;;;32.20;29.10;;;20.20;1.00;;;;;;5053950;28;20482;-75
2021/07/14 03:07:25;;;;;;;32.00;29.00;;;20.30;1.00;;;;;;5048100;28;20539;-75
2021/07/14 03:09:53;;;;;;;32.50;29.60;;;20.30;1.00;;;;;;5046750;28;20816;-74
2021/07/14 03:12:21;;;;;;;30.07;27.17;;;20.20;1.00;;;;;;5049485;28;20483;-74
2021/07/14 03:14:51;;;;;;;31.20;28.40;;;20.20;1.00;;;;;;5046519;28;20457;-75
2021/07/14 03:17:19;;;;;;;32.57;29.50;;;20.20;1.00;;;;;;5046540;28;20543;-75
2021/07/14 03:19:50;;;;;;;33.40;30.40;;;20.20;1.00;;;;;;5046810;28;20466;-73
2021/07/14 03:22:18;;;;;;;31.37;28.47;;;20.20;1.00;;;;;;5047040;28;20988;-75
2021/07/14 03:24:46;;;;;;;32.13;29.00;;;20.20;1.00;;;;;;5043485;28;20441;-74
2021/07/14 03:27:14;;;;;;;31.60;28.80;;;20.20;1.00;;;;;;5048534;28;20453;-75
2021/07/14 03:29:42;;;;;;;33.00;29.90;;;20.20;1.00;;;;;;5048237;28;21024;-73
2021/07/14 03:32:11;;;;;;;31.63;28.90;;;20.10;1.00;;;;;;5044918;28;20517;-75
2021/07/14 03:34:38;;;;;;;31.67;28.57;;;20.10;1.00;;;;;;5047505;28;20850;-74
2021/07/14 03:37:07;;;;;;;30.83;27.73;;;20.10;1.00;;;;;;5045038;28;21633;-72
2021/07/14 03:39:36;;;;;;;33.47;30.53;;;20.10;1.00;;;;;;5047905;28;20445;-74
2021/07/14 03:42:04;;;;;;;32.70;29.43;;;20.10;1.00;;;;;;5046369;28;20460;-75
2021/07/14 03:44:32;;;;;;;32.13;29.23;;;20.10;1.00;;;;;;5048401;28;20470;-74
2021/07/14 03:47:00;;;;;;;32.27;29.23;;;20.10;1.00;;;;;;5050225;28;20570;-74
2021/07/14 03:49:28;;;;;;;31.37;28.50;;;20.00;1.00;;;;;;5048145;28;20460;-74
2021/07/14 03:51:56;;;;;;;30.90;27.90;;;20.10;1.00;;;;;;5046823;28;20466;-75
2021/07/14 03:54:27;;;;;;;30.60;27.80;;;20.10;1.00;;;;;;5044087;28;21035;-75
2021/07/14 03:56:54;;;;;;;33.17;30.03;;;20.10;1.00;;;;;;5046378;28;21095;-74
2021/07/14 03:59:21;;;;;;;28.20;25.50;;;20.10;1.00;;;;;;5049171;28;20983;-74
2021/07/14 04:01:49;;;;;;;28.70;25.90;;;20.10;1.00;;;;;;5048696;28;20966;-74
2021/07/14 04:04:16;;;;;;;25.53;23.13;;;20.10;1.00;;;;;;5049810;28;20483;-74
2021/07/14 04:06:46;;;;;;;25.57;23.07;;;20.10;1.00;;;;;;5044528;28;20456;-74
2021/07/14 04:09:22;;;;;;;22.63;20.40;;;20.10;1.00;;;;;;5045678;28;21482;-74
2021/07/14 04:11:53;;;;;;;23.47;20.47;;;20.00;1.00;;;;;;5047006;28;20560;-73
2021/07/14 04:14:20;;;;;;;21.47;19.47;;;20.00;1.00;;;;;;5052642;28;20816;-74
2021/07/14 04:16:47;;;;;;;21.20;19.20;;;20.00;1.00;;;;;;5052228;28;20546;-75
2021/07/14 04:19:14;;;;;;;21.27;19.10;;;20.00;1.00;;;;;;5044741;28;20548;-74
2021/07/14 04:21:40;;;;;;;22.33;20.13;;;20.00;1.00;;;;;;5047375;28;21284;-75
2021/07/14 04:24:07;;;;;;;22.23;18.07;;;20.00;1.00;;;;;;5048241;28;20453;-73
2021/07/14 04:26:35;;;;;;;24.43;21.50;;;20.00;1.00;;;;;;5049618;28;20959;-74
2021/07/14 04:29:03;;;;;;;23.80;21.40;;;20.00;1.00;;;;;;5048608;28;20449;-74
2021/07/14 04:31:31;;;;;;;22.30;19.90;;;20.00;1.00;;;;;;5046162;28;20499;-74
2021/07/14 04:33:57;;;;;;;24.70;18.90;;;20.00;1.00;;;;;;5044637;28;20547;-75
2021/07/14 04:36:24;;;;;;;24.03;19.63;;;20.00;1.00;;;;;;5047606;28;20456;-75
2021/07/14 04:38:51;;;;;;;24.83;20.70;;;20.10;1.00;;;;;;5049273;28;20517;-75
2021/07/14 04:41:18;;;;;;;23.80;21.27;;;20.00;1.00;;;;;;5047530;28;20442;-75
2021/07/14 04:43:45;;;;;;;20.93;18.80;;;19.90;1.00;;;;;;5045903;28;21181;-74
2021/07/14 04:46:13;;;;;;;24.57;20.13;;;19.90;1.00;;;;;;5050165;28;20451;-75
2021/07/14 04:48:39;;;;;;;24.83;19.30;;;19.90;1.00;;;;;;5049303;28;20448;-74
2021/07/14 04:51:06;;;;;;;25.97;21.50;;;19.90;1.00;;;;;;5052574;28;20481;-73
2021/07/14 04:53:33;;;;;;;26.80;21.20;;;19.90;1.00;;;;;;5056390;28;20480;-73
2021/07/14 04:56:00;;;;;;;29.43;22.97;;;20.10;1.00;;;;;;5052579;28;20580;-75
2021/07/14 04:58:28;;;;;;;28.27;22.73;;;20.20;1.00;;;;;;5048666;28;20441;-74
2021/07/14 05:00:55;;;;;;;26.80;20.37;;;20.30;1.00;;;;;;5044317;28;20575;-74
2021/07/14 05:03:24;;;;;;;26.90;22.10;;;20.40;1.00;;;;;;5042147;28;20474;-75
2021/07/14 05:05:52;;;;;;;30.80;22.00;;;20.40;1.00;;;;;;5048257;28;20461;-74
2021/07/14 05:08:18;;;;;;;26.20;23.00;;;20.50;1.00;;;;;;5046065;28;21193;-74
2021/07/14 05:10:48;;;;;;;27.70;22.73;;;20.60;1.00;;;;;;5041332;28;20459;-75
2021/07/14 05:13:16;;;;;;;24.03;21.53;;;20.70;1.00;;;;;;5041481;28;20449;-75
2021/07/14 05:15:43;;;;;;;28.00;23.53;;;20.70;1.00;;;;;;5046596;28;20468;-75
2021/07/14 05:18:10;;;;;;;25.40;22.77;;;20.80;1.00;;;;;;5045707;28;20444;-74
2021/07/14 05:20:39;;;;;;;24.30;21.80;;;20.90;1.00;;;;;;5042737;28;20470;-76
2021/07/14 05:23:06;;;;;;;34.83;21.40;;;20.90;1.00;;;;;;5039200;28;21645;-73
2021/07/14 05:25:33;;;;;;;24.27;21.67;;;21.00;1.00;;;;;;5038907;28;20461;-73
2021/07/14 05:28:00;;;;;;;25.10;22.50;;;21.10;1.00;;;;;;5040831;28;20533;-71
2021/07/14 05:30:27;;;;;;;23.07;20.67;;;21.30;1.00;;;;;;5042176;28;20491;-72
2021/07/14 05:32:54;;;;;;;24.83;20.10;;;21.30;1.00;;;;;;5048286;28;21828;-72
2021/07/14 05:35:21;;;;;;;22.23;19.83;;;21.40;1.00;;;;;;5046024;28;21353;-72
2021/07/14 05:37:49;;;;;;;21.50;19.47;;;21.40;1.00;;;;;;5048639;28;20448;-70
2021/07/14 05:40:16;;;;;;;22.83;19.47;;;21.40;1.00;;;;;;5047129;28;20567;-68
2021/07/14 05:42:43;;;;;;;21.73;19.63;;;21.40;1.00;;;;;;5039848;28;20501;-69
2021/07/14 05:45:10;;;;;;;20.83;18.70;;;21.30;1.00;;;;;;5040440;28;20461;-67
2021/07/14 05:47:36;;;;;;;20.43;18.43;;;21.30;1.00;;;;;;5043633;28;20549;-68
2021/07/14 05:50:05;;;;;;;21.13;19.07;;;21.40;1.00;;;;;;5043574;28;20459;-69
2021/07/14 05:52:32;;;;;;;21.70;19.53;;;21.30;1.00;;;;;;5043663;28;20489;-69
2021/07/14 05:55:00;;;;;;;25.60;19.60;;;21.40;1.00;;;;;;5039800;28;20496;-67
2021/07/14 05:57:27;;;;;;;21.83;19.53;;;21.50;1.00;;;;;;5044950;28;20450;-68
2021/07/14 05:59:53;;;;;;;21.00;18.30;;;21.60;1.00;;;;;;5045480;28;20465;-70
2021/07/14 06:02:20;;;;;;;21.60;18.60;;;21.80;1.00;;;;;;5044522;28;20554;-75
2021/07/14 06:04:47;;;;;;;20.80;18.30;;;21.80;1.00;;;;;;5043949;28;20430;-73
2021/07/14 06:07:13;;;;;;;20.40;18.40;;;22.10;1.00;;;;;;5049319;28;20950;-76
2021/07/14 06:09:40;;;;;;;18.50;16.63;;;22.20;1.00;;;;;;5046618;28;20988;-73
2021/07/14 06:12:09;;;;;;;19.17;17.30;;;22.30;1.00;;;;;;5044247;28;20467;-72
2021/07/14 06:14:36;;;;;;;19.90;17.90;;;22.30;1.00;;;;;;5046878;28;23581;-72
2021/07/14 06:17:03;;;;;;;18.90;16.90;;;22.40;1.00;;;;;;5042650;28;20460;-75
2021/07/14 06:19:30;;;;;;;17.80;16.10;;;22.50;1.00;;;;;;5041648;28;20448;-73
2021/07/14 06:21:57;;;;;;;18.10;16.40;;;22.50;1.00;;;;;;5042605;28;20928;-72
2021/07/14 06:24:24;;;;;;;18.73;16.83;;;22.50;1.00;;;;;;5043090;28;20466;-76
2021/07/14 06:26:55;;;;;;;19.43;17.60;;;22.50;1.00;;;;;;5044652;28;24407;-74
2021/07/14 06:29:23;;;;;;;19.33;17.53;;;22.60;1.00;;;;;;5050138;28;20462;-75
2021/07/14 06:31:50;;;;;;;20.67;18.77;;;22.60;1.00;;;;;;5050694;28;21041;-76
2021/07/14 06:34:17;;;;;;;21.33;19.43;;;22.50;1.00;;;;;;5044238;28;21217;-75
2021/07/14 06:36:44;;;;;;;21.60;19.40;;;22.40;1.00;;;;;;5048161;28;20436;-76
2021/07/14 06:39:10;;;;;;;21.37;19.40;;;22.40;1.00;;;;;;5046384;28;20438;-73
2021/07/14 06:41:37;;;;;;;21.17;19.13;;;22.30;1.00;;;;;;5047363;28;20901;-74
2021/07/14 06:44:04;;;;;;;22.30;20.03;;;22.30;1.00;;;;;;5047407;28;20615;-75
2021/07/14 06:46:32;;;;;;;21.90;19.77;;;22.10;1.00;;;;;;5047419;28;20435;-75
2021/07/14 06:49:00;;;;;;;21.20;19.20;;;22.10;1.00;;;;;;5046639;28;20485;-73
2021/07/14 06:51:27;;;;;;;22.37;20.10;;;22.20;1.00;;;;;;5045055;28;20466;-74
2021/07/14 06:53:54;;;;;;;20.90;18.87;;;22.20;1.00;;;;;;5049735;28;20475;-76
2021/07/14 06:56:21;;;;;;;22.10;20.00;;;22.10;1.00;;;;;;5047803;28;20447;-74
2021/07/14 06:58:48;;;;;;;20.83;18.93;;;22.10;1.00;;;;;;5047233;28;21292;-73
2021/07/14 07:01:16;;;;;;;21.63;19.53;;;22.10;1.00;;;;;;5051049;28;20431;-73
2021/07/14 07:03:46;;;;;;;20.00;18.07;;;22.10;1.00;;;;;;5048415;28;20459;-75
2021/07/14 07:06:12;;;;;;;19.90;18.13;;;22.10;1.00;;;;;;5045429;28;20463;-74
2021/07/14 07:08:39;;;;;;;20.90;18.90;;;22.20;1.00;;;;;;5048380;28;21278;-73
2021/07/14 07:11:06;;;;;;;19.63;17.73;;;22.20;1.00;;;;;;5048786;28;20463;-76
2021/07/14 07:13:33;;;;;;;18.70;17.00;;;22.40;1.00;;;;;;5043511;28;20619;-73
2021/07/14 07:16:01;;;;;;;20.53;18.60;;;22.50;1.00;;;;;;5044419;28;20472;-74
2021/07/14 07:18:28;;;;;;;20.00;18.30;;;22.60;1.00;;;;;;5048319;28;20440;-75
2021/07/14 07:20:57;;;;;;;19.57;17.97;;;22.60;1.00;;;;;;5046112;28;20586;-74
2021/07/14 07:23:24;;;;;;;18.43;16.43;;;22.60;1.00;;;;;;5047331;28;20457;-74
2021/07/14 07:25:53;;;;;;;18.77;17.27;;;22.70;1.00;;;;;;5047867;28;20531;-74
2021/07/14 07:28:22;;;;;;;18.40;16.83;;;22.90;1.00;;;;;;5046887;28;20538;-72
2021/07/14 07:30:49;;;;;;;18.87;17.27;;;23.00;1.00;;;;;;5047705;28;20471;-73
2021/07/14 07:33:16;;;;;;;18.97;17.27;;;23.00;1.00;;;;;;5049364;28;20517;-72
2021/07/14 07:35:44;;;;;;;17.27;15.77;;;23.00;1.00;;;;;;5044596;28;21182;-73
2021/07/14 07:38:12;;;;;;;18.00;16.20;;;22.90;1.00;;;;;;5047170;28;20431;-73
2021/07/14 07:40:39;;;;;;;18.70;17.10;;;22.90;1.00;;;;;;5048724;28;24258;-72
2021/07/14 07:43:05;;;;;;;17.50;15.80;;;22.90;1.00;;;;;;5047798;28;21289;-75
2021/07/14 07:45:32;;;;;;;18.40;16.90;;;23.10;1.00;;;;;;5042553;28;20465;-74
2021/07/14 07:47:59;;;;;;;18.80;17.10;;;23.30;1.00;;;;;;5047584;28;20466;-74
2021/07/14 07:50:26;;;;;;;17.90;16.20;;;23.60;1.00;;;;;;5044546;28;20492;-75
2021/07/14 07:52:53;;;;;;;17.73;15.70;;;23.70;1.00;;;;;;5049729;28;20500;-74
2021/07/14 07:55:21;;;;;;;19.00;17.30;;;23.80;1.00;;;;;;5050247;28;20450;-75
2021/07/14 07:57:48;;;;;;;19.00;17.20;;;23.80;1.00;;;;;;5057468;28;20519;-76
2021/07/14 08:00:17;;;;;;;19.00;17.30;;;23.80;1.00;;;;;;5061052;28;20464;-72
2021/07/14 08:02:44;;;;;;;16.90;15.60;;;23.80;1.00;;;;;;5061842;28;20471;-74
2021/07/14 08:05:11;;;;;;;17.77;16.20;;;23.80;1.00;;;;;;5061169;28;20456;-74
2021/07/14 08:07:38;;;;;;;18.17;16.67;;;23.80;1.00;;;;;;5063173;28;20463;-73
2021/07/14 08:10:06;;;;;;;18.93;17.40;;;23.70;1.00;;;;;;5066065;28;20458;-73
2021/07/14 08:12:35;;;;;;;19.03;17.30;;;23.80;1.00;;;;;;5059779;28;20457;-73
2021/07/14 08:15:03;;;;;;;18.03;16.33;;;23.90;1.00;;;;;;5097175;22;21016;-78
2021/07/14 08:17:30;;;;;;;16.73;15.20;;;24.00;1.00;;;;;;5086840;28;20464;-80
2021/07/14 08:19:56;;;;;;;20.57;18.57;;;24.10;1.00;;;;;;5095469;27;20998;-80
2021/07/14 08:22:23;;;;;;;17.83;16.33;;;24.40;1.00;;;;;;5090879;27;20515;-82
2021/07/14 08:24:50;;;;;;;16.70;15.30;;;24.50;1.00;;;;;;5083961;28;21162;-78
2021/07/14 08:27:16;;;;;;;17.10;15.63;;;24.70;1.00;;;;;;5079819;28;21586;-80
2021/07/14 08:29:44;;;;;;;17.00;15.37;;;25.00;1.00;;;;;;5071118;28;20435;-79
2021/07/14 08:32:11;;;;;;;15.23;13.77;;;25.20;1.00;;;;;;5072607;28;20463;-80
2021/07/14 08:34:38;;;;;;;14.97;13.70;;;25.20;1.00;;;;;;5072023;28;20462;-79
2021/07/14 08:37:06;;;;;;;14.60;13.43;;;25.10;1.00;;;;;;5073623;28;20462;-80
2021/07/14 08:39:33;;;;;;;14.80;13.40;;;25.10;1.00;;;;;;5072191;28;20448;-80
2021/07/14 08:42:02;;;;;;;14.23;12.93;;;25.00;1.00;;;;;;5064743;28;20989;-79
2021/07/14 08:44:29;;;;;;;14.23;13.00;;;24.70;1.00;;;;;;5069581;28;20990;-78
2021/07/14 08:46:58;;;;;;;16.00;14.53;;;24.60;1.00;;;;;;5067881;28;20473;-78
2021/07/14 08:49:25;;;;;;;14.43;13.33;;;24.50;1.00;;;;;;5065173;28;20449;-79
2021/07/14 08:51:54;;;;;;;15.13;13.93;;;24.50;1.00;;;;;;5068347;28;20472;-79
2021/07/14 08:54:21;;;;;;;15.27;14.07;;;24.70;1.00;;;;;;5069791;28;20554;-79
2021/07/14 08:56:49;;;;;;;15.83;14.63;;;24.70;1.00;;;;;;5075054;28;21334;-79
2021/07/14 08:59:17;;;;;;;16.70;15.40;;;24.70;1.00;;;;;;5089137;28;20421;-80
2021/07/14 09:01:45;;;;;;;17.67;16.30;;;24.70;1.00;;;;;;5107039;27;20430;-79
2021/07/14 09:04:13;;;;;;;19.03;17.27;;;24.60;1.00;;;;;;5107340;28;20425;-80
2021/07/14 09:06:40;;;;;;;17.77;16.47;;;24.60;1.00;;;;;;5096132;28;20404;-80
2021/07/14 09:09:07;;;;;;;17.67;16.23;;;24.70;1.00;;;;;;5099318;28;20450;-80
2021/07/14 09:11:49;;;;;;;18.13;16.63;;;24.60;1.00;;;;;;5107663;28;20418;-80
2021/07/14 09:14:31;;;;;;;17.93;16.53;;;24.50;1.00;;;;;;5106824;28;20416;-81
2021/07/14 09:16:59;;;;;;;20.30;18.67;;;24.40;1.00;;;;;;5106504;28;20483;-82
2021/07/14 09:19:29;;;;;;;19.03;17.53;;;24.60;1.00;;;;;;5115174;27;20398;-82
2021/07/14 09:21:57;;;;;;;18.67;17.17;;;24.90;1.00;;;;;;5108137;27;20445;-80
2021/07/14 09:24:26;;;;;;;18.07;16.77;;;25.20;1.00;;;;;;5112775;27;20411;-79
2021/07/14 09:26:54;;;;;;;18.00;16.37;;;25.30;1.00;;;;;;5109764;28;20437;-84
2021/07/14 09:29:20;;;;;;;19.30;17.60;;;25.40;1.00;;;;;;5109926;27;20395;-80
2021/07/14 09:31:48;;;;;;;19.97;18.27;;;25.50;1.00;;;;;;5108077;27;20554;-80
2021/07/14 09:34:32;;;;;;;18.40;16.90;;;25.90;1.00;;;;;;5106803;28;20428;-80
2021/07/14 09:37:01;;;;;;;17.00;15.60;;;26.10;1.00;;;;;;5108622;28;20461;-81
2021/07/14 09:39:36;;;;;;;18.10;16.60;;;26.20;1.00;;;;;;5110400;27;20400;-81
2021/07/14 09:42:07;;;;;;;17.07;15.57;;;26.30;1.00;;;;;;5110438;27;20405;-80
2021/07/14 09:44:34;;;;;;;17.20;15.80;;;26.30;1.00;;;;;;5108103;27;20460;-81
2021/07/14 09:47:13;;;;;;;25.97;23.60;;;26.20;1.00;;;;;;5109138;27;20568;-81
2021/07/14 09:49:42;;;;;;;20.40;18.67;;;26.00;1.00;;;;;;5108455;27;20425;-81
2021/07/14 09:52:11;;;;;;;16.30;15.00;;;26.30;1.00;;;;;;5107198;27;20512;-81
2021/07/14 09:54:38;;;;;;;17.17;15.87;;;26.30;1.00;;;;;;5109160;27;20508;-80
2021/07/14 09:57:10;;;;;;;16.17;14.70;;;26.20;1.00;;;;;;5110352;27;20417;-80
2021/07/14 09:59:36;;;;;;;17.27;15.63;;;26.20;1.00;;;;;;5108068;27;20395;-82
2021/07/14 10:02:04;;;;;;;16.57;14.93;;;26.00;1.00;;;;;;5111793;27;20471;-81
2021/07/14 10:04:33;;;;;;;16.33;15.03;;;26.00;1.00;;;;;;5112586;27;20526;-80
2021/07/14 10:07:08;;;;;;;17.43;16.07;;;26.20;1.00;;;;;;5111832;27;20430;-81
2021/07/14 10:09:35;;;;;;;17.53;16.13;;;26.40;1.00;;;;;;5112493;27;20443;-81
2021/07/14 10:12:26;;;;;;;17.03;15.63;;;26.40;1.00;;;;;;5112870;27;20487;-82
2021/07/14 10:14:53;;;;;;;16.43;14.73;;;26.00;1.00;;;;;;5104007;27;20439;-81
2021/07/14 10:17:36;;;;;;;18.57;16.77;;;26.10;1.00;;;;;;5113210;27;20412;-78
2021/07/14 10:20:25;;;;;;;17.03;15.10;;;26.30;1.00;;;;;;5114802;27;20494;-78
2021/07/14 10:22:55;;;;;;;16.83;15.43;;;26.40;1.00;;;;;;5109687;27;20465;-78
2021/07/14 10:25:23;;;;;;;17.03;15.63;;;26.10;1.00;;;;;;5106184;28;20404;-79
2021/07/14 10:27:51;;;;;;;15.47;14.27;;;25.80;1.00;;;;;;5109468;27;20411;-78
2021/07/14 10:30:19;;;;;;;15.83;14.53;;;25.40;1.00;;;;;;5111525;27;20404;-77
2021/07/14 10:32:46;;;;;;;15.00;13.90;;;25.30;1.00;;;;;;5110312;27;20441;-77
2021/07/14 10:35:15;;;;;;;15.50;14.20;;;25.40;1.00;;;;;;5113279;27;20418;-77
2021/07/14 10:37:48;;;;;;;12.90;11.90;;;25.80;1.00;;;;;;5108966;27;20459;-77
2021/07/14 10:40:18;;;;;;;12.07;11.07;;;25.80;1.00;;;;;;5115193;27;20409;-77
2021/07/14 10:42:45;;;;;;;10.80;10.00;;;25.80;1.00;;;;;;5108477;28;20520;-76
2021/07/14 10:45:13;;;;;;;11.10;9.83;;;26.00;1.00;;;;;;5108171;28;20410;-79
2021/07/14 10:47:40;;;;;;;10.60;9.60;;;26.20;1.00;;;;;;5104184;27;21623;-79
2021/07/14 10:50:08;;;;;;;10.47;9.67;;;26.40;1.00;;;;;;5084527;28;20603;-78
2021/07/14 10:52:35;;;;;;;9.73;9.03;;;26.30;1.00;;;;;;5092507;27;21161;-79
2021/07/14 10:55:03;;;;;;;11.17;10.27;;;26.10;1.00;;;;;;5080131;28;20760;-78
2021/07/14 10:57:32;;;;;;;10.97;10.00;;;25.90;1.00;;;;;;5073254;28;20468;-78
2021/07/14 10:59:59;;;;;;;10.43;9.53;;;25.90;1.00;;;;;;5072597;28;20456;-77
2021/07/14 11:02:39;;;;;;;9.97;9.10;;;25.90;1.00;;;;;;5069658;28;20469;-79
2021/07/14 11:05:07;;;;;;;9.83;9.13;;;26.10;1.00;;;;;;5078665;28;20947;-80
2021/07/14 11:07:41;;;;;;;9.53;8.83;;;26.30;1.00;;;;;;5076998;27;20453;-79
2021/07/14 11:10:33;;;;;;;10.13;9.23;;;26.40;1.00;;;;;;5081712;27;20452;-78
2021/07/14 11:13:30;;;;;;;9.80;9.10;;;26.50;1.00;;;;;;5082337;28;21253;-79
2021/07/14 11:15:57;;;;;;;9.27;8.57;;;26.50;1.00;;;;;;5054155;27;20465;-79
2021/07/14 11:18:37;;;;;;;8.60;7.97;;;26.60;1.00;;;;;;5071945;28;20453;-79
2021/07/14 11:21:04;;;;;;;8.80;8.10;;;26.30;1.00;;;;;;5073724;28;20689;-78
2021/07/14 11:23:31;;;;;;;7.43;6.90;;;26.10;1.00;;;;;;5072508;28;20494;-79
2021/07/14 11:25:58;;;;;;;9.10;8.27;;;26.10;1.00;;;;;;5076455;28;20452;-79
2021/07/14 11:28:28;;;;;;;8.37;7.67;;;26.20;1.00;;;;;;5069569;28;20443;-78
2021/07/14 11:30:57;;;;;;;8.33;7.63;;;26.40;1.00;;;;;;5072985;28;20467;-78
2021/07/14 11:33:28;;;;;;;9.10;8.40;;;27.00;1.00;;;;;;5075206;28;20443;-80
2021/07/14 11:35:57;;;;;;;10.03;9.00;;;27.80;1.00;;;;;;5066907;28;20791;-80
2021/07/14 11:38:27;;;;;;;9.40;8.60;;;28.70;1.00;;;;;;5071703;28;20539;-79
2021/07/14 11:40:56;;;;;;;8.83;8.03;;;28.80;1.00;;;;;;5071656;28;20567;-80
2021/07/14 11:43:40;;;;;;;8.67;7.97;;;28.80;1.00;;;;;;5074212;28;20454;-78
2021/07/14 11:46:10;;;;;;;9.00;8.20;;;29.10;1.00;;;;;;5068899;28;21658;-78
2021/07/14 11:48:38;;;;;;;7.93;7.30;;;29.30;1.00;;;;;;5066814;28;20433;-79
2021/07/14 11:51:08;;;;;;;10.10;7.97;;;29.30;1.00;;;;;;5072003;28;20461;-80
2021/07/14 11:53:43;;;;;;;8.80;8.10;;;29.20;1.00;;;;;;5072179;28;21384;-79
2021/07/14 11:56:13;;;;;;;9.73;8.87;;;28.90;1.00;;;;;;5067141;28;20443;-81
2021/07/14 11:59:02;;;;;;;9.30;8.60;;;28.80;1.00;;;;;;5067328;28;20449;-79
2021/07/14 12:01:52;;;;;;;9.00;8.30;;;28.50;1.00;;;;;;5069693;28;20483;-81
2021/07/14 12:04:24;;;;;;;8.40;7.70;;;28.30;1.00;;;;;;5073160;28;20460;-80
2021/07/14 12:06:53;;;;;;;7.60;6.93;;;28.30;1.00;;;;;;5071371;28;20533;-80
2021/07/14 12:09:32;;;;;;;8.70;7.87;;;28.40;1.00;;;;;;5075676;28;20561;-80
2021/07/14 12:12:01;;;;;;;9.00;7.40;;;28.50;1.00;;;;;;5068682;28;20966;-79
2021/07/14 12:14:32;;;;;;;8.43;7.73;;;28.80;1.00;;;;;;5078423;28;20434;-79
2021/07/14 12:17:00;;;;;;;9.03;8.33;;;29.10;1.00;;;;;;5069967;28;20458;-77
2021/07/14 12:19:28;;;;;;;8.70;8.00;;;29.20;1.00;;;;;;5069401;28;20489;-78
2021/07/14 12:21:56;;;;;;;7.60;7.10;;;30.10;1.00;;;;;;5067066;28;20549;-78
2021/07/14 12:24:31;;;;;;;7.07;6.43;;;31.90;1.00;;;;;;5067306;28;20478;-80
2021/07/14 12:27:07;;;;;;;7.30;6.80;;;33.00;1.00;;;;;;5064788;28;20446;-78
2021/07/14 12:29:35;;;;;;;6.60;6.10;;;32.20;1.00;;;;;;5068446;28;20506;-77
2021/07/14 12:32:02;;;;;;;7.60;7.00;;;31.40;1.00;;;;;;5065010;28;20461;-77
2021/07/14 12:34:32;;;;;;;8.00;7.30;;;31.30;1.00;;;;;;5066290;28;20461;-79
2021/07/14 12:37:00;;;;;;;8.60;7.53;;;31.50;1.00;;;;;;5072278;28;20457;-79
2021/07/14 12:39:28;;;;;;;5.73;5.33;;;32.20;1.00;;;;;;5074678;28;20451;-79
2021/07/14 12:41:56;;;;;;;6.60;6.10;;;31.90;1.00;;;;;;5067328;28;20465;-78
2021/07/14 12:44:23;;;;;;;6.60;5.90;;;31.20;1.00;;;;;;5071244;28;21284;-79
2021/07/14 12:46:52;;;;;;;7.97;7.23;;;30.40;1.00;;;;;;5072554;28;20438;-79
2021/07/14 12:49:20;;;;;;;7.80;7.20;;;29.70;1.00;;;;;;5071942;28;20411;-79
2021/07/14 12:52:08;;;;;;;8.03;7.40;;;29.10;1.00;;;;;;5089927;28;20421;-79
2021/07/14 12:54:36;;;;;;;8.97;8.27;;;28.40;1.00;;;;;;5099918;27;20611;-78
2021/07/14 12:57:13;;;;;;;7.77;7.17;;;28.50;1.00;;;;;;5080047;28;21344;-79